sensor_id;sensor_type;location;lat;lon;timestamp;temperature;humidity
74822;DHT22;63353;48.702;8.884;2024-01-07T00:01:35;3.00;99.90
74822;DHT22;63353;48.702;8.884;2024-01-07T00:04:01;3.00;99.90
74822;DHT22;63353;48.702;8.884;2024-01-07T00:06:27;3.00;99.90
74822;DHT22;63353;48.702;8.884;2024-01-07T00:08:53;2.90;99.90
74822;DHT22;63353;48.702;8.884;2024-01-07T00:11:18;2.80;99.90
74822;DHT22;63353;48.702;8.884;2024-01-07T00:13:45;2.80;99.90
74822;DHT22;63353;48.702;8.884;2024-01-07T00:16:10;2.70;99.90
74822;DHT22;63353;48.702;8.884;2024-01-07T00:18:36;2.70;99.90
74822;DHT22;63353;48.702;8.884;2024-01-07T00:21:04;2.70;99.90
74822;DHT22;63353;48.702;8.884;2024-01-07T00:23:31;2.80;99.90
74822;DHT22;63353;48.702;8.884;2024-01-07T00:25:56;2.70;99.90
74822;DHT22;63353;48.702;8.884;2024-01-07T00:28:22;2.70;99.90
74822;DHT22;63353;48.702;8.884;2024-01-07T00:30:47;2.70;99.90
74822;DHT22;63353;48.702;8.884;2024-01-07T00:33:13;2.70;99.90
74822;DHT22;63353;48.702;8.884;2024-01-07T00:35:39;2.70;99.90
74822;DHT22;63353;48.702;8.884;2024-01-07T00:38:04;2.70;99.90
74822;DHT22;63353;48.702;8.884;2024-01-07T00:40:30;2.70;99.90
74822;DHT22;63353;48.702;8.884;2024-01-07T00:42:55;2.60;99.90
74822;DHT22;63353;48.702;8.884;2024-01-07T00:45:21;2.70;99.90
74822;DHT22;63353;48.702;8.884;2024-01-07T00:47:47;2.60;99.90
74822;DHT22;63353;48.702;8.884;2024-01-07T00:50:13;2.70;99.90
74822;DHT22;63353;48.702;8.884;2024-01-07T00:52:40;2.60;99.90
74822;DHT22;63353;48.702;8.884;2024-01-07T00:55:09;2.60;99.90
74822;DHT22;63353;48.702;8.884;2024-01-07T00:57:34;2.60;99.90
74822;DHT22;63353;48.702;8.884;2024-01-07T01:00:04;2.60;99.90
74822;DHT22;63353;48.702;8.884;2024-01-07T01:02:30;2.60;99.90
74822;DHT22;63353;48.702;8.884;2024-01-07T01:04:55;2.60;99.90
74822;DHT22;63353;48.702;8.884;2024-01-07T01:07:21;2.60;99.90
74822;DHT22;63353;48.702;8.884;2024-01-07T01:09:46;2.60;99.90
74822;DHT22;63353;48.702;8.884;2024-01-07T01:12:12;2.60;99.90
74822;DHT22;63353;48.702;8.884;2024-01-07T01:14:38;2.50;99.90
74822;DHT22;63353;48.702;8.884;2024-01-07T01:17:04;2.50;99.90
74822;DHT22;63353;48.702;8.884;2024-01-07T01:19:30;2.50;99.90
74822;DHT22;63353;48.702;8.884;2024-01-07T01:21:57;2.50;99.90
74822;DHT22;63353;48.702;8.884;2024-01-07T01:24:23;2.50;99.90
74822;DHT22;63353;48.702;8.884;2024-01-07T01:26:48;2.40;99.90
74822;DHT22;63353;48.702;8.884;2024-01-07T01:29:14;2.40;99.90
74822;DHT22;63353;48.702;8.884;2024-01-07T01:31:39;2.40;99.90
74822;DHT22;63353;48.702;8.884;2024-01-07T01:34:05;2.40;99.90
74822;DHT22;63353;48.702;8.884;2024-01-07T01:36:31;2.40;99.90
74822;DHT22;63353;48.702;8.884;2024-01-07T01:38:57;2.40;99.90
74822;DHT22;63353;48.702;8.884;2024-01-07T01:41:23;2.40;99.90
74822;DHT22;63353;48.702;8.884;2024-01-07T01:43:49;2.40;99.90
74822;DHT22;63353;48.702;8.884;2024-01-07T01:46:14;2.40;99.90
74822;DHT22;63353;48.702;8.884;2024-01-07T01:48:42;2.40;99.90
74822;DHT22;63353;48.702;8.884;2024-01-07T01:51:08;2.40;99.90
74822;DHT22;63353;48.702;8.884;2024-01-07T01:53:37;2.30;99.90
74822;DHT22;63353;48.702;8.884;2024-01-07T01:56:03;2.30;99.90
74822;DHT22;63353;48.702;8.884;2024-01-07T01:58:29;2.30;99.90
74822;DHT22;63353;48.702;8.884;2024-01-07T02:00:56;2.40;99.90
74822;DHT22;63353;48.702;8.884;2024-01-07T02:03:22;2.40;99.90
74822;DHT22;63353;48.702;8.884;2024-01-07T02:05:48;2.30;99.90
74822;DHT22;63353;48.702;8.884;2024-01-07T02:08:15;2.40;99.90
74822;DHT22;63353;48.702;8.884;2024-01-07T02:10:41;2.40;99.90
74822;DHT22;63353;48.702;8.884;2024-01-07T02:13:07;2.40;99.90
74822;DHT22;63353;48.702;8.884;2024-01-07T02:15:32;2.40;99.90
74822;DHT22;63353;48.702;8.884;2024-01-07T02:18:00;2.40;99.90
74822;DHT22;63353;48.702;8.884;2024-01-07T02:20:25;2.40;99.90
74822;DHT22;63353;48.702;8.884;2024-01-07T02:22:51;2.30;99.90
74822;DHT22;63353;48.702;8.884;2024-01-07T02:25:17;2.30;99.90
74822;DHT22;63353;48.702;8.884;2024-01-07T02:27:42;2.30;99.90
74822;DHT22;63353;48.702;8.884;2024-01-07T02:30:08;2.30;99.90
74822;DHT22;63353;48.702;8.884;2024-01-07T02:32:35;2.30;99.90
74822;DHT22;63353;48.702;8.884;2024-01-07T02:35:03;2.30;99.90
74822;DHT22;63353;48.702;8.884;2024-01-07T02:37:29;2.30;99.90
74822;DHT22;63353;48.702;8.884;2024-01-07T02:39:56;2.30;99.90
74822;DHT22;63353;48.702;8.884;2024-01-07T02:42:22;2.30;99.90
74822;DHT22;63353;48.702;8.884;2024-01-07T02:44:47;2.20;99.90
74822;DHT22;63353;48.702;8.884;2024-01-07T02:47:13;2.30;99.90
74822;DHT22;63353;48.702;8.884;2024-01-07T02:49:39;2.30;99.90
74822;DHT22;63353;48.702;8.884;2024-01-07T02:52:04;2.30;99.90
74822;DHT22;63353;48.702;8.884;2024-01-07T02:54:30;2.30;99.90
74822;DHT22;63353;48.702;8.884;2024-01-07T02:56:55;2.30;99.90
74822;DHT22;63353;48.702;8.884;2024-01-07T02:59:21;2.30;99.90
74822;DHT22;63353;48.702;8.884;2024-01-07T03:01:48;2.30;99.90
74822;DHT22;63353;48.702;8.884;2024-01-07T03:04:15;2.30;99.90
74822;DHT22;63353;48.702;8.884;2024-01-07T03:06:41;2.30;99.90
74822;DHT22;63353;48.702;8.884;2024-01-07T03:09:07;2.20;99.90
74822;DHT22;63353;48.702;8.884;2024-01-07T03:11:39;2.20;99.90
74822;DHT22;63353;48.702;8.884;2024-01-07T03:14:06;2.20;99.90
74822;DHT22;63353;48.702;8.884;2024-01-07T03:16:31;2.20;99.90
74822;DHT22;63353;48.702;8.884;2024-01-07T03:18:58;2.20;99.90
74822;DHT22;63353;48.702;8.884;2024-01-07T03:21:24;2.20;99.90
74822;DHT22;63353;48.702;8.884;2024-01-07T03:23:51;2.20;99.90
74822;DHT22;63353;48.702;8.884;2024-01-07T03:26:18;2.20;99.90
74822;DHT22;63353;48.702;8.884;2024-01-07T03:28:44;2.30;99.90
74822;DHT22;63353;48.702;8.884;2024-01-07T03:31:12;2.30;99.90
74822;DHT22;63353;48.702;8.884;2024-01-07T03:33:39;2.30;99.90
74822;DHT22;63353;48.702;8.884;2024-01-07T03:36:12;2.30;99.90
74822;DHT22;63353;48.702;8.884;2024-01-07T03:38:39;2.20;99.90
74822;DHT22;63353;48.702;8.884;2024-01-07T03:41:06;2.40;99.90
74822;DHT22;63353;48.702;8.884;2024-01-07T03:43:32;2.30;99.90
74822;DHT22;63353;48.702;8.884;2024-01-07T03:45:58;2.30;99.90
74822;DHT22;63353;48.702;8.884;2024-01-07T03:48:24;2.30;99.90
74822;DHT22;63353;48.702;8.884;2024-01-07T03:50:50;2.40;99.90
74822;DHT22;63353;48.702;8.884;2024-01-07T03:53:16;2.30;99.90
74822;DHT22;63353;48.702;8.884;2024-01-07T03:55:42;2.30;99.90
74822;DHT22;63353;48.702;8.884;2024-01-07T03:58:07;2.30;99.90
74822;DHT22;63353;48.702;8.884;2024-01-07T04:00:34;2.30;99.90
74822;DHT22;63353;48.702;8.884;2024-01-07T04:03:00;2.40;99.90
74822;DHT22;63353;48.702;8.884;2024-01-07T04:05:26;2.30;99.90
74822;DHT22;63353;48.702;8.884;2024-01-07T04:07:52;2.30;99.90
74822;DHT22;63353;48.702;8.884;2024-01-07T04:10:18;2.40;99.90
74822;DHT22;63353;48.702;8.884;2024-01-07T04:12:44;2.50;99.90
74822;DHT22;63353;48.702;8.884;2024-01-07T04:15:11;2.30;99.90
74822;DHT22;63353;48.702;8.884;2024-01-07T04:17:37;2.30;99.90
74822;DHT22;63353;48.702;8.884;2024-01-07T04:20:03;2.40;99.90
74822;DHT22;63353;48.702;8.884;2024-01-07T04:22:29;2.40;99.90
74822;DHT22;63353;48.702;8.884;2024-01-07T04:24:55;2.40;99.90
74822;DHT22;63353;48.702;8.884;2024-01-07T04:27:20;2.40;99.90
74822;DHT22;63353;48.702;8.884;2024-01-07T04:29:46;2.40;99.90
74822;DHT22;63353;48.702;8.884;2024-01-07T04:32:12;2.50;99.90
74822;DHT22;63353;48.702;8.884;2024-01-07T04:34:38;2.50;99.90
74822;DHT22;63353;48.702;8.884;2024-01-07T04:37:03;2.50;99.90
74822;DHT22;63353;48.702;8.884;2024-01-07T04:39:29;2.50;99.90
74822;DHT22;63353;48.702;8.884;2024-01-07T04:41:55;2.50;99.90
74822;DHT22;63353;48.702;8.884;2024-01-07T04:44:20;2.50;99.90
74822;DHT22;63353;48.702;8.884;2024-01-07T04:46:47;2.50;99.90
74822;DHT22;63353;48.702;8.884;2024-01-07T04:49:13;2.50;99.90
74822;DHT22;63353;48.702;8.884;2024-01-07T04:51:38;2.50;99.90
74822;DHT22;63353;48.702;8.884;2024-01-07T04:54:04;2.50;99.90
74822;DHT22;63353;48.702;8.884;2024-01-07T04:56:31;2.40;99.90
74822;DHT22;63353;48.702;8.884;2024-01-07T04:58:57;2.50;99.90
74822;DHT22;63353;48.702;8.884;2024-01-07T05:01:23;2.40;99.90
74822;DHT22;63353;48.702;8.884;2024-01-07T05:03:50;2.50;99.90
74822;DHT22;63353;48.702;8.884;2024-01-07T05:06:15;2.50;99.90
74822;DHT22;63353;48.702;8.884;2024-01-07T05:08:43;2.50;99.90
74822;DHT22;63353;48.702;8.884;2024-01-07T05:11:09;2.50;99.90
74822;DHT22;63353;48.702;8.884;2024-01-07T05:13:35;2.50;99.90
74822;DHT22;63353;48.702;8.884;2024-01-07T05:16:02;2.40;99.90
74822;DHT22;63353;48.702;8.884;2024-01-07T05:18:28;2.50;99.90
74822;DHT22;63353;48.702;8.884;2024-01-07T05:20:53;2.50;99.90
74822;DHT22;63353;48.702;8.884;2024-01-07T05:23:19;2.50;99.90
74822;DHT22;63353;48.702;8.884;2024-01-07T05:25:46;2.50;99.90
74822;DHT22;63353;48.702;8.884;2024-01-07T05:28:13;2.50;99.90
74822;DHT22;63353;48.702;8.884;2024-01-07T05:30:41;2.60;99.90
74822;DHT22;63353;48.702;8.884;2024-01-07T05:33:06;2.50;99.90
74822;DHT22;63353;48.702;8.884;2024-01-07T05:35:32;2.50;99.90
74822;DHT22;63353;48.702;8.884;2024-01-07T05:37:58;2.40;99.90
74822;DHT22;63353;48.702;8.884;2024-01-07T05:40:23;2.50;99.90
74822;DHT22;63353;48.702;8.884;2024-01-07T05:42:50;2.50;99.90
74822;DHT22;63353;48.702;8.884;2024-01-07T05:45:16;2.50;99.90
74822;DHT22;63353;48.702;8.884;2024-01-07T05:47:42;2.60;99.90
74822;DHT22;63353;48.702;8.884;2024-01-07T05:50:08;2.50;99.90
74822;DHT22;63353;48.702;8.884;2024-01-07T05:52:34;2.50;99.90
74822;DHT22;63353;48.702;8.884;2024-01-07T05:55:00;2.50;99.90
74822;DHT22;63353;48.702;8.884;2024-01-07T05:57:26;2.50;99.90
74822;DHT22;63353;48.702;8.884;2024-01-07T05:59:52;2.60;99.90
74822;DHT22;63353;48.702;8.884;2024-01-07T06:02:18;2.60;99.90
74822;DHT22;63353;48.702;8.884;2024-01-07T06:04:44;2.50;99.90
74822;DHT22;63353;48.702;8.884;2024-01-07T06:07:09;2.50;99.90
74822;DHT22;63353;48.702;8.884;2024-01-07T06:09:35;2.50;99.90
74822;DHT22;63353;48.702;8.884;2024-01-07T06:12:02;2.40;99.90
74822;DHT22;63353;48.702;8.884;2024-01-07T06:14:28;2.40;99.90
74822;DHT22;63353;48.702;8.884;2024-01-07T06:16:53;2.60;99.90
74822;DHT22;63353;48.702;8.884;2024-01-07T06:19:20;2.50;99.90
74822;DHT22;63353;48.702;8.884;2024-01-07T06:21:46;2.50;99.90
74822;DHT22;63353;48.702;8.884;2024-01-07T06:24:12;2.50;99.90
74822;DHT22;63353;48.702;8.884;2024-01-07T06:26:37;2.40;99.90
74822;DHT22;63353;48.702;8.884;2024-01-07T06:29:03;2.50;99.90
74822;DHT22;63353;48.702;8.884;2024-01-07T06:31:29;2.40;99.90
74822;DHT22;63353;48.702;8.884;2024-01-07T06:33:55;2.40;99.90
74822;DHT22;63353;48.702;8.884;2024-01-07T06:36:22;2.40;99.90
74822;DHT22;63353;48.702;8.884;2024-01-07T06:38:47;2.30;99.90
74822;DHT22;63353;48.702;8.884;2024-01-07T06:41:14;2.40;99.90
74822;DHT22;63353;48.702;8.884;2024-01-07T06:43:40;2.30;99.90
74822;DHT22;63353;48.702;8.884;2024-01-07T06:46:06;2.30;99.90
74822;DHT22;63353;48.702;8.884;2024-01-07T06:48:31;2.30;99.90
74822;DHT22;63353;48.702;8.884;2024-01-07T06:50:57;2.30;99.90
74822;DHT22;63353;48.702;8.884;2024-01-07T06:53:24;2.30;99.90
74822;DHT22;63353;48.702;8.884;2024-01-07T06:55:50;2.30;99.90
74822;DHT22;63353;48.702;8.884;2024-01-07T06:58:16;2.40;99.90
74822;DHT22;63353;48.702;8.884;2024-01-07T07:00:43;2.40;99.90
74822;DHT22;63353;48.702;8.884;2024-01-07T07:03:08;2.40;99.90
74822;DHT22;63353;48.702;8.884;2024-01-07T07:05:34;2.30;99.90
74822;DHT22;63353;48.702;8.884;2024-01-07T07:08:01;2.30;99.90
74822;DHT22;63353;48.702;8.884;2024-01-07T07:10:26;2.30;99.90
74822;DHT22;63353;48.702;8.884;2024-01-07T07:12:52;2.30;99.90
74822;DHT22;63353;48.702;8.884;2024-01-07T07:15:18;2.30;99.90
74822;DHT22;63353;48.702;8.884;2024-01-07T07:17:44;2.20;99.90
74822;DHT22;63353;48.702;8.884;2024-01-07T07:20:11;2.30;99.90
74822;DHT22;63353;48.702;8.884;2024-01-07T07:22:37;2.30;99.90
74822;DHT22;63353;48.702;8.884;2024-01-07T07:25:03;2.20;99.90
74822;DHT22;63353;48.702;8.884;2024-01-07T07:27:29;2.20;99.90
74822;DHT22;63353;48.702;8.884;2024-01-07T07:29:54;2.20;99.90
74822;DHT22;63353;48.702;8.884;2024-01-07T07:32:20;2.20;99.90
74822;DHT22;63353;48.702;8.884;2024-01-07T07:34:46;2.20;99.90
74822;DHT22;63353;48.702;8.884;2024-01-07T07:37:14;2.20;99.90
74822;DHT22;63353;48.702;8.884;2024-01-07T07:39:40;2.20;99.90
74822;DHT22;63353;48.702;8.884;2024-01-07T07:42:05;2.20;99.90
74822;DHT22;63353;48.702;8.884;2024-01-07T07:44:31;2.20;99.90
74822;DHT22;63353;48.702;8.884;2024-01-07T07:46:57;2.20;99.90
74822;DHT22;63353;48.702;8.884;2024-01-07T07:49:23;2.20;99.90
74822;DHT22;63353;48.702;8.884;2024-01-07T07:51:48;2.20;99.90
74822;DHT22;63353;48.702;8.884;2024-01-07T07:54:16;2.20;99.90
74822;DHT22;63353;48.702;8.884;2024-01-07T07:56:42;2.20;99.90
74822;DHT22;63353;48.702;8.884;2024-01-07T07:59:08;2.20;99.90
74822;DHT22;63353;48.702;8.884;2024-01-07T08:01:34;2.20;99.90
74822;DHT22;63353;48.702;8.884;2024-01-07T08:04:00;2.20;99.90
74822;DHT22;63353;48.702;8.884;2024-01-07T08:06:27;2.10;99.90
74822;DHT22;63353;48.702;8.884;2024-01-07T08:08:53;2.10;99.90
74822;DHT22;63353;48.702;8.884;2024-01-07T08:11:18;2.00;99.90
74822;DHT22;63353;48.702;8.884;2024-01-07T08:13:44;1.90;99.90
74822;DHT22;63353;48.702;8.884;2024-01-07T08:16:09;1.90;99.90
74822;DHT22;63353;48.702;8.884;2024-01-07T08:18:36;1.90;99.90
74822;DHT22;63353;48.702;8.884;2024-01-07T08:21:01;1.80;99.90
74822;DHT22;63353;48.702;8.884;2024-01-07T08:23:28;1.80;99.90
74822;DHT22;63353;48.702;8.884;2024-01-07T08:25:54;1.80;99.90
74822;DHT22;63353;48.702;8.884;2024-01-07T08:28:20;1.90;99.90
74822;DHT22;63353;48.702;8.884;2024-01-07T08:30:46;1.90;99.90
74822;DHT22;63353;48.702;8.884;2024-01-07T08:33:12;1.80;99.90
74822;DHT22;63353;48.702;8.884;2024-01-07T08:35:37;1.90;99.90
74822;DHT22;63353;48.702;8.884;2024-01-07T08:38:03;1.80;99.90
74822;DHT22;63353;48.702;8.884;2024-01-07T08:40:30;1.80;99.90
74822;DHT22;63353;48.702;8.884;2024-01-07T08:42:56;1.80;99.90
74822;DHT22;63353;48.702;8.884;2024-01-07T08:45:22;1.80;99.90
74822;DHT22;63353;48.702;8.884;2024-01-07T08:47:48;1.80;99.90
74822;DHT22;63353;48.702;8.884;2024-01-07T08:50:13;1.90;99.90
74822;DHT22;63353;48.702;8.884;2024-01-07T08:52:39;1.80;99.90
74822;DHT22;63353;48.702;8.884;2024-01-07T08:55:05;1.80;99.90
74822;DHT22;63353;48.702;8.884;2024-01-07T08:57:32;1.80;99.90
74822;DHT22;63353;48.702;8.884;2024-01-07T08:59:58;1.80;99.90
74822;DHT22;63353;48.702;8.884;2024-01-07T09:02:24;1.80;99.90
74822;DHT22;63353;48.702;8.884;2024-01-07T09:04:50;1.80;99.90
74822;DHT22;63353;48.702;8.884;2024-01-07T09:07:16;1.90;99.90
74822;DHT22;63353;48.702;8.884;2024-01-07T09:09:42;1.90;99.90
74822;DHT22;63353;48.702;8.884;2024-01-07T09:12:08;1.90;99.90
74822;DHT22;63353;48.702;8.884;2024-01-07T09:14:34;1.90;99.90
74822;DHT22;63353;48.702;8.884;2024-01-07T09:16:59;1.80;99.90
74822;DHT22;63353;48.702;8.884;2024-01-07T09:19:25;1.80;99.90
74822;DHT22;63353;48.702;8.884;2024-01-07T09:21:50;1.90;99.90
74822;DHT22;63353;48.702;8.884;2024-01-07T09:24:16;1.80;99.90
74822;DHT22;63353;48.702;8.884;2024-01-07T09:26:42;1.80;99.90
74822;DHT22;63353;48.702;8.884;2024-01-07T09:29:07;1.80;99.90
74822;DHT22;63353;48.702;8.884;2024-01-07T09:31:35;1.80;99.90
74822;DHT22;63353;48.702;8.884;2024-01-07T09:34:01;1.80;99.90
74822;DHT22;63353;48.702;8.884;2024-01-07T09:36:27;1.80;99.90
74822;DHT22;63353;48.702;8.884;2024-01-07T09:38:53;1.90;99.90
74822;DHT22;63353;48.702;8.884;2024-01-07T09:41:19;1.80;99.90
74822;DHT22;63353;48.702;8.884;2024-01-07T09:43:45;1.90;99.90
74822;DHT22;63353;48.702;8.884;2024-01-07T09:46:13;1.80;99.90
74822;DHT22;63353;48.702;8.884;2024-01-07T09:48:39;1.80;99.90
74822;DHT22;63353;48.702;8.884;2024-01-07T09:51:08;1.80;99.90
74822;DHT22;63353;48.702;8.884;2024-01-07T09:53:35;1.80;99.90
74822;DHT22;63353;48.702;8.884;2024-01-07T09:56:19;1.80;99.90
74822;DHT22;63353;48.702;8.884;2024-01-07T09:58:46;1.80;99.90
74822;DHT22;63353;48.702;8.884;2024-01-07T10:01:18;1.80;99.90
74822;DHT22;63353;48.702;8.884;2024-01-07T10:03:44;1.70;99.90
74822;DHT22;63353;48.702;8.884;2024-01-07T10:06:12;1.70;99.90
74822;DHT22;63353;48.702;8.884;2024-01-07T10:08:39;1.80;99.90
74822;DHT22;63353;48.702;8.884;2024-01-07T10:11:05;1.70;99.90
74822;DHT22;63353;48.702;8.884;2024-01-07T10:13:31;1.70;99.90
74822;DHT22;63353;48.702;8.884;2024-01-07T10:15:58;1.90;99.90
74822;DHT22;63353;48.702;8.884;2024-01-07T10:18:25;1.70;99.90
74822;DHT22;63353;48.702;8.884;2024-01-07T10:20:52;1.80;99.90
74822;DHT22;63353;48.702;8.884;2024-01-07T10:23:19;1.80;99.90
74822;DHT22;63353;48.702;8.884;2024-01-07T10:25:46;1.70;99.90
74822;DHT22;63353;48.702;8.884;2024-01-07T10:28:16;1.80;99.90
74822;DHT22;63353;48.702;8.884;2024-01-07T10:30:48;1.70;99.90
74822;DHT22;63353;48.702;8.884;2024-01-07T10:33:17;1.70;99.90
74822;DHT22;63353;48.702;8.884;2024-01-07T10:35:52;1.70;99.90
74822;DHT22;63353;48.702;8.884;2024-01-07T10:38:21;1.70;99.90
74822;DHT22;63353;48.702;8.884;2024-01-07T10:40:48;1.60;99.90
74822;DHT22;63353;48.702;8.884;2024-01-07T10:43:15;1.60;99.90
74822;DHT22;63353;48.702;8.884;2024-01-07T10:45:44;1.60;99.90
74822;DHT22;63353;48.702;8.884;2024-01-07T10:48:16;1.60;99.90
74822;DHT22;63353;48.702;8.884;2024-01-07T10:50:47;1.70;99.90
74822;DHT22;63353;48.702;8.884;2024-01-07T10:53:21;1.60;99.90
74822;DHT22;63353;48.702;8.884;2024-01-07T10:56:11;1.50;99.90
74822;DHT22;63353;48.702;8.884;2024-01-07T10:58:39;1.50;99.90
74822;DHT22;63353;48.702;8.884;2024-01-07T11:01:05;1.50;99.90
74822;DHT22;63353;48.702;8.884;2024-01-07T11:03:40;1.50;99.90
74822;DHT22;63353;48.702;8.884;2024-01-07T11:09:16;1.40;99.90
74822;DHT22;63353;48.702;8.884;2024-01-07T11:11:44;1.40;99.90
74822;DHT22;63353;48.702;8.884;2024-01-07T11:14:36;1.40;99.90
74822;DHT22;63353;48.702;8.884;2024-01-07T11:17:03;1.30;99.90
74822;DHT22;63353;48.702;8.884;2024-01-07T11:19:29;1.30;99.90
74822;DHT22;63353;48.702;8.884;2024-01-07T11:22:24;1.30;99.90
74822;DHT22;63353;48.702;8.884;2024-01-07T11:24:54;1.30;99.90
74822;DHT22;63353;48.702;8.884;2024-01-07T11:27:22;1.20;99.90
74822;DHT22;63353;48.702;8.884;2024-01-07T11:32:23;1.20;99.90
74822;DHT22;63353;48.702;8.884;2024-01-07T11:34:51;1.20;99.90
74822;DHT22;63353;48.702;8.884;2024-01-07T11:37:19;1.10;99.90
74822;DHT22;63353;48.702;8.884;2024-01-07T11:39:47;1.10;99.90
74822;DHT22;63353;48.702;8.884;2024-01-07T11:42:14;1.20;99.90
74822;DHT22;63353;48.702;8.884;2024-01-07T11:44:51;1.20;99.90
74822;DHT22;63353;48.702;8.884;2024-01-07T11:47:17;1.10;99.90
74822;DHT22;63353;48.702;8.884;2024-01-07T11:49:44;1.10;99.90
74822;DHT22;63353;48.702;8.884;2024-01-07T11:52:10;1.10;99.90
74822;DHT22;63353;48.702;8.884;2024-01-07T11:54:37;1.10;99.90
74822;DHT22;63353;48.702;8.884;2024-01-07T11:57:04;1.10;99.90
74822;DHT22;63353;48.702;8.884;2024-01-07T11:59:30;1.00;99.90
74822;DHT22;63353;48.702;8.884;2024-01-07T12:01:55;1.00;99.90
74822;DHT22;63353;48.702;8.884;2024-01-07T12:04:21;1.00;99.90
74822;DHT22;63353;48.702;8.884;2024-01-07T12:06:48;1.00;99.90
74822;DHT22;63353;48.702;8.884;2024-01-07T12:09:16;1.00;99.90
74822;DHT22;63353;48.702;8.884;2024-01-07T12:11:41;1.00;99.90
74822;DHT22;63353;48.702;8.884;2024-01-07T12:14:08;1.00;99.90
74822;DHT22;63353;48.702;8.884;2024-01-07T12:16:36;1.00;99.90
74822;DHT22;63353;48.702;8.884;2024-01-07T12:19:01;0.90;99.90
74822;DHT22;63353;48.702;8.884;2024-01-07T12:21:28;1.00;99.90
74822;DHT22;63353;48.702;8.884;2024-01-07T12:23:55;1.00;99.90
74822;DHT22;63353;48.702;8.884;2024-01-07T12:26:26;1.00;99.90
74822;DHT22;63353;48.702;8.884;2024-01-07T12:28:53;0.90;99.90
74822;DHT22;63353;48.702;8.884;2024-01-07T12:31:26;1.00;99.90
74822;DHT22;63353;48.702;8.884;2024-01-07T12:33:52;0.90;99.90
74822;DHT22;63353;48.702;8.884;2024-01-07T12:36:22;0.90;99.90
74822;DHT22;63353;48.702;8.884;2024-01-07T12:38:48;0.80;99.90
74822;DHT22;63353;48.702;8.884;2024-01-07T12:41:13;0.80;99.90
74822;DHT22;63353;48.702;8.884;2024-01-07T12:43:39;0.70;99.90
74822;DHT22;63353;48.702;8.884;2024-01-07T12:46:05;0.70;99.90
74822;DHT22;63353;48.702;8.884;2024-01-07T12:48:31;0.60;99.90
74822;DHT22;63353;48.702;8.884;2024-01-07T12:50:57;0.60;99.90
74822;DHT22;63353;48.702;8.884;2024-01-07T12:53:23;0.60;99.90
74822;DHT22;63353;48.702;8.884;2024-01-07T12:55:49;0.60;99.90
74822;DHT22;63353;48.702;8.884;2024-01-07T12:58:16;0.60;99.90
74822;DHT22;63353;48.702;8.884;2024-01-07T13:00:42;0.60;99.90
74822;DHT22;63353;48.702;8.884;2024-01-07T13:03:09;0.50;99.90
74822;DHT22;63353;48.702;8.884;2024-01-07T13:05:39;0.50;99.90
74822;DHT22;63353;48.702;8.884;2024-01-07T13:08:05;0.50;99.90
74822;DHT22;63353;48.702;8.884;2024-01-07T13:10:31;0.50;99.90
74822;DHT22;63353;48.702;8.884;2024-01-07T13:12:56;0.50;99.90
74822;DHT22;63353;48.702;8.884;2024-01-07T13:15:22;0.50;99.90
74822;DHT22;63353;48.702;8.884;2024-01-07T13:17:48;0.50;99.90
74822;DHT22;63353;48.702;8.884;2024-01-07T13:20:13;0.50;99.90
74822;DHT22;63353;48.702;8.884;2024-01-07T13:22:40;0.50;99.90
74822;DHT22;63353;48.702;8.884;2024-01-07T13:25:06;0.50;99.90
74822;DHT22;63353;48.702;8.884;2024-01-07T13:27:32;0.50;99.90
74822;DHT22;63353;48.702;8.884;2024-01-07T13:30:00;0.50;99.90
74822;DHT22;63353;48.702;8.884;2024-01-07T13:32:25;0.40;99.90
74822;DHT22;63353;48.702;8.884;2024-01-07T13:34:51;0.50;99.90
74822;DHT22;63353;48.702;8.884;2024-01-07T13:37:17;0.40;99.90
74822;DHT22;63353;48.702;8.884;2024-01-07T13:39:42;0.50;99.90
74822;DHT22;63353;48.702;8.884;2024-01-07T13:42:08;0.40;99.90
74822;DHT22;63353;48.702;8.884;2024-01-07T13:44:35;0.30;99.90
74822;DHT22;63353;48.702;8.884;2024-01-07T13:47:02;0.40;99.90
74822;DHT22;63353;48.702;8.884;2024-01-07T13:49:27;0.40;99.90
74822;DHT22;63353;48.702;8.884;2024-01-07T13:51:53;0.40;99.90
74822;DHT22;63353;48.702;8.884;2024-01-07T13:54:21;0.30;99.90
74822;DHT22;63353;48.702;8.884;2024-01-07T13:56:48;0.30;99.90
74822;DHT22;63353;48.702;8.884;2024-01-07T13:59:15;0.30;99.90
74822;DHT22;63353;48.702;8.884;2024-01-07T14:01:43;0.30;99.90
74822;DHT22;63353;48.702;8.884;2024-01-07T14:04:08;0.30;99.90
74822;DHT22;63353;48.702;8.884;2024-01-07T14:06:34;0.20;99.90
74822;DHT22;63353;48.702;8.884;2024-01-07T14:09:00;0.20;99.90
74822;DHT22;63353;48.702;8.884;2024-01-07T14:11:26;0.10;99.90
74822;DHT22;63353;48.702;8.884;2024-01-07T14:13:53;0.10;99.90
74822;DHT22;63353;48.702;8.884;2024-01-07T14:16:19;0.10;99.90
74822;DHT22;63353;48.702;8.884;2024-01-07T14:18:46;0.10;99.90
74822;DHT22;63353;48.702;8.884;2024-01-07T14:21:12;0.00;99.90
74822;DHT22;63353;48.702;8.884;2024-01-07T14:23:37;0.00;99.90
74822;DHT22;63353;48.702;8.884;2024-01-07T14:26:03;-0.10;99.90
74822;DHT22;63353;48.702;8.884;2024-01-07T14:28:29;-0.10;99.90
74822;DHT22;63353;48.702;8.884;2024-01-07T14:30:57;-0.10;99.90
74822;DHT22;63353;48.702;8.884;2024-01-07T14:33:23;-0.10;99.90
74822;DHT22;63353;48.702;8.884;2024-01-07T14:35:49;-0.10;99.90
74822;DHT22;63353;48.702;8.884;2024-01-07T14:38:18;-0.10;99.90
74822;DHT22;63353;48.702;8.884;2024-01-07T14:40:43;-0.20;99.90
74822;DHT22;63353;48.702;8.884;2024-01-07T14:43:14;-0.20;99.90
74822;DHT22;63353;48.702;8.884;2024-01-07T14:45:39;-0.30;99.90
74822;DHT22;63353;48.702;8.884;2024-01-07T14:48:05;-0.20;99.90
74822;DHT22;63353;48.702;8.884;2024-01-07T14:50:31;-0.30;99.90
74822;DHT22;63353;48.702;8.884;2024-01-07T14:52:57;-0.30;99.90
74822;DHT22;63353;48.702;8.884;2024-01-07T14:55:23;-0.30;99.90
74822;DHT22;63353;48.702;8.884;2024-01-07T14:57:49;-0.40;99.90
74822;DHT22;63353;48.702;8.884;2024-01-07T15:00:15;-0.50;99.90
74822;DHT22;63353;48.702;8.884;2024-01-07T15:02:40;-0.50;99.90
74822;DHT22;63353;48.702;8.884;2024-01-07T15:05:07;-0.50;99.90
74822;DHT22;63353;48.702;8.884;2024-01-07T15:07:33;-0.50;99.90
74822;DHT22;63353;48.702;8.884;2024-01-07T15:09:59;-0.50;99.90
74822;DHT22;63353;48.702;8.884;2024-01-07T15:12:25;-0.50;99.90
74822;DHT22;63353;48.702;8.884;2024-01-07T15:14:55;-0.50;99.90
74822;DHT22;63353;48.702;8.884;2024-01-07T15:17:20;-0.60;99.90
74822;DHT22;63353;48.702;8.884;2024-01-07T15:19:46;-0.60;99.90
74822;DHT22;63353;48.702;8.884;2024-01-07T15:22:12;-0.70;99.90
74822;DHT22;63353;48.702;8.884;2024-01-07T15:24:38;-0.60;99.90
74822;DHT22;63353;48.702;8.884;2024-01-07T15:27:04;-0.70;99.90
74822;DHT22;63353;48.702;8.884;2024-01-07T15:29:30;-0.70;99.90
74822;DHT22;63353;48.702;8.884;2024-01-07T15:31:55;-0.70;99.90
74822;DHT22;63353;48.702;8.884;2024-01-07T15:34:21;-0.60;99.90
74822;DHT22;63353;48.702;8.884;2024-01-07T15:36:47;-0.70;99.90
74822;DHT22;63353;48.702;8.884;2024-01-07T15:39:13;-0.70;99.90
74822;DHT22;63353;48.702;8.884;2024-01-07T15:41:39;-0.80;99.90
74822;DHT22;63353;48.702;8.884;2024-01-07T15:44:04;-0.80;99.90
74822;DHT22;63353;48.702;8.884;2024-01-07T15:46:30;-0.80;99.90